ESMKESMS

Guest
Details From ESMK - Kristianstad
To ESMS - Malmo Sturup
Flight Number -
Tags generated
Created
Modified
Stats Distance 34 nm / 63 km
Max Altitude 2,400 ft / 732 m
Waypoints 3
Social Downloads 0
Likes 0
Share VATSIM

Download

Looking for another format? Having issues loading an existing format? Contact us
Advertisement - Login to hide

Notes

Basic altitude profile: - Ascent Rate: 2500ft/min - Ascent Speed: 250kts - Cruise Altitude: 35000ft - Cruise Speed: 420kts - Descent Rate: 1500ft/min - Descent Speed: 250kts Options: - Use NATs: no - Use PACOTS: no - Use low airways: yes - Use high airways: no

Route

ESMK MAXUM ESMS

ID Type Via Altitude Latitude Longitude Leg Dist Tot Dist Heading (true) Name
O ESMK APT - 0 ft / 0 m 55.92169˚ 14.08553˚ - 0 nm - Kristianstad
MAXUM FIX - 2,400 ft / 732 m 55.66125˚ 13.60400˚ 22 nm 22 nm 226° / 226° -
O ESMS APT - 0 ft / 0 m 55.52888˚ 13.37111˚ 11 nm 33 nm 225° / 225° Malmo Sturup

Altitude Profile

Advertisement - Login to hide

ESMK

Details ICAO ESMK (KID)
Name Kristianstad
Region Sweden
Timezone Europe/Stockholm (UTC+1.0)
Stats Elevation 76 ft / 23 m (AMSL)
Location 55.921686° 14.085535°
Runways 1
Magnetic Variation 4.234° E

METAR

ESMK 152320Z AUTO 28004KT 9999 BKN054/// 02/02 Q0996

Decode

TAF

Not found

Departure Runways

ID Width Length Bearing (true) Bearing (mag) Surface Threshold Offset Overrun Length
01 148 ft / 45 m 7,259 ft / 2,213 m 7.13° 2.90° Asphalt 0 ft / 0 m 0 ft / 0 m
19 148 ft / 45 m 7,259 ft / 2,213 m 187.13° 182.90° Asphalt 0 ft / 0 m 0 ft / 0 m

ESMS

Details ICAO ESMS (MMX)
Name Malmo Sturup
Region Sweden
Timezone Europe/Stockholm (UTC+1.0)
Stats Elevation 236 ft / 72 m (AMSL)
Location 55.528883° 13.371109°
Runways 2
Magnetic Variation 3.964° E

METAR

ESMS 152320Z 29003KT 8000 BR FEW008 BKN017 00/M00 Q0996 R17/29//95

Decode

TAF

TAF ESMS 151707Z 1518/1618 24010KT 9999 BKN015 TEMPO 1518/1602 4000 BR BKN008 TEMPO 1602/1609 2000 -SHRASN BR BKN004 FEW020CB TEMPO 1613/1618 4000 SHRASN BKN008 SCT020CB

Decode

Destination Runways

ID Width Length Bearing (true) Bearing (mag) Surface Threshold Offset Overrun Length
11 59 ft / 18 m 2,609 ft / 795 m 105.31° 101.35° Asphalt 0 ft / 0 m 0 ft / 0 m
17 148 ft / 45 m 9,176 ft / 2,797 m 173.36° 169.40° Asphalt 0 ft / 0 m 98 ft / 30 m
29 59 ft / 18 m 2,609 ft / 795 m 285.32° 281.36° Asphalt 0 ft / 0 m 0 ft / 0 m
35 148 ft / 45 m 9,176 ft / 2,797 m 353.37° 349.41° Asphalt 0 ft / 0 m 98 ft / 30 m

Approach Navaids

Runway Type Ident Frequency Range Bearing (true) Bearing (mag) Slope Elevation
17 Localiser NMS 111.90 MHz 18 nm / 33 km 173.37° 169.40° - 236 ft / 72 m (AMSL)
17 Glidescope NMS 111.90 MHz 10 nm / 19 km 173.37° 169.40° 3.00° 236 ft / 72 m (AMSL)
35 Localiser SMS 108.10 MHz 18 nm / 33 km 353.36° 349.40° - 236 ft / 72 m (AMSL)
35 Glidescope SMS 108.10 MHz 10 nm / 19 km 353.37° 349.40° 3.00° 236 ft / 72 m (AMSL)